Mesa.AZweather.com - Mesa, AZ
   Red Mountain Frwy and University Dr., El 1518 ft.
        --- Sunday  June 9, 2019 ---
 
 High Temperature ..  105F at 16:20
 Low Temperature ...  67F at 05:55
 
 High Humidity .....  33% at 06:21
 Low Humidity ......  8% at 15:03
 
 Rainfall Total ....  0.00 in.
 
 High Wind Speed ... ---
                     
 
 High Barometer ....  30.01 at 07:05
 Low Barometer .....  29.88 at 17:02
 
Dew Point    High .... 39   Low ..... 29
 
 
 Time   Temp  Humi  Rain     Baro  DewPt  Wind
00:00,  74F, 22%, 0.00 in, 29.91, 32F, ---
00:30,  73F, 24%, 0.00 in, 29.91, 34F, ---
01:00,  77F, 23%, 0.00 in, 29.92, 36F, ---
01:30,  75F, 24%, 0.00 in, 29.92, 36F, ---
02:00,  75F, 22%, 0.00 in, 29.92, 34F, ---
02:30,  75F, 21%, 0.00 in, 29.92, 33F, ---
03:00,  74F, 21%, 0.00 in, 29.92, 31F, ---
03:30,  71F, 23%, 0.00 in, 29.93, 32F, ---
04:00,  71F, 24%, 0.00 in, 29.94, 33F, ---
04:30,  70F, 25%, 0.00 in, 29.95, 32F, ---
05:00,  68F, 27%, 0.00 in, 29.95, 33F, ---
05:30,  68F, 28%, 0.00 in, 29.97, 34F, ---
06:00,  67F, 30%, 0.00 in, 29.98, 34F, ---
06:30,  69F, 33%, 0.00 in, 30.00, 39F, ---
07:00,  73F, 27%, 0.00 in, 30.00, 37F, ---
07:30,  78F, 20%, 0.00 in, 30.00, 34F, ---
08:00,  83F, 18%, 0.00 in, 30.00, 35F, ---
08:30,  86F, 16%, 0.00 in, 30.00, 35F, ---
09:00,  89F, 15%, 0.00 in, 30.00, 36F, ---
09:30,  90F, 14%, 0.00 in, 30.00, 34F, ---
10:00,  91F, 13%, 0.00 in, 30.01, 34F, ---
10:30,  95F, 12%, 0.00 in, 30.00, 34F, ---
11:00,  96F, 12%, 0.00 in, 30.01, 36F, ---
11:30,  98F, 11%, 0.00 in, 30.00, 35F, ---
12:00,  99F, 11%, 0.00 in, 29.99, 35F, ---
12:30,  100F, 10%, 0.00 in, 29.98, 34F, ---
13:00,  100F, 10%, 0.00 in, 29.97, 34F, ---
13:30,  101F, 10%, 0.00 in, 29.96, 34F, ---
14:00,  102F, 10%, 0.00 in, 29.94, 35F, ---
14:30,  103F, 9%, 0.00 in, 29.94, 33F, ---
15:00,  104F, 9%, 0.00 in, 29.92, 34F, ---
15:30,  103F, 9%, 0.00 in, 29.91, 33F, ---
16:00,  103F, 9%, 0.00 in, 29.90, 33F, ---
16:30,  104F, 9%, 0.00 in, 29.90, 34F, ---
17:00,  104F, 9%, 0.00 in, 29.89, 34F, ---
17:30,  104F, 9%, 0.00 in, 29.88, 34F, ---
18:00,  103F, 9%, 0.00 in, 29.88, 33F, ---
18:30,  102F, 9%, 0.00 in, 29.89, 33F, ---
19:00,  101F, 9%, 0.00 in, 29.90, 31F, ---
19:30,  98F, 9%, 0.00 in, 29.90, 30F, ---
20:00,  96F, 10%, 0.00 in, 29.91, 31F, ---
20:30,  94F, 11%, 0.00 in, 29.90, 31F, ---
21:00,  90F, 14%, 0.00 in, 29.92, 34F, ---
21:30,  87F, 15%, 0.00 in, 29.92, 34F, ---
22:00,  85F, 17%, 0.00 in, 29.93, 35F, ---
22:30,  83F, 17%, 0.00 in, 29.93, 33F, ---
23:00,  81F, 19%, 0.00 in, 29.93, 35F, ---
23:30,  80F, 20%, 0.00 in, 29.94, 36F, ---
23:59,  79F, 20%, 0.00 in, 29.93, 34F, ---